Time;durP1;ratioP1;P1;durP2;ratioP2;P2;SDS_P1;SDS_P2;PMS_P1;PMS_P2;Temp;Humidity;BMP_temperature;BMP_pressure;BME280_temperature;BME280_humidity;BME280_pressure;Samples;Min_cycle;Max_cycle;Signal;HPM_P1;HPM_P2
2022/05/02 00:01:37;;;;;;;5.70;4.70;;;14.40;72.20;;;;;;5015928;28;20218;-64
2022/05/02 00:04:05;;;;;;;5.07;4.23;;;14.50;72.30;;;;;;5016596;28;20236;-64
2022/05/02 00:06:32;;;;;;;5.95;3.88;;;14.50;71.90;;;;;;5016190;28;20473;-64
2022/05/02 00:08:59;;;;;;;4.47;4.07;;;14.50;71.90;;;;;;5016654;28;20274;-64
2022/05/02 00:11:25;;;;;;;5.70;4.22;;;14.50;71.80;;;;;;5015813;28;20229;-64
2022/05/02 00:13:53;;;;;;;5.00;3.93;;;14.50;71.70;;;;;;5016389;28;20230;-64
2022/05/02 00:16:21;;;;;;;6.07;4.70;;;14.50;71.80;;;;;;5015939;28;20472;-64
2022/05/02 00:18:47;;;;;;;6.13;4.77;;;14.50;71.80;;;;;;5016498;28;20469;-64
2022/05/02 00:21:14;;;;;;;9.40;5.30;;;14.50;71.70;;;;;;5003399;28;20477;-64
2022/05/02 00:23:41;;;;;;;4.70;4.30;;;14.40;71.30;;;;;;5015666;28;20472;-64
2022/05/02 00:26:09;;;;;;;4.90;4.20;;;14.40;71.30;;;;;;5016249;28;20222;-64
2022/05/02 00:28:36;;;;;;;4.28;3.50;;;14.40;71.30;;;;;;5015576;28;20225;-63
2022/05/02 00:31:04;;;;;;;11.73;5.77;;;14.40;71.20;;;;;;5016025;28;20234;-64
2022/05/02 00:33:31;;;;;;;8.57;4.40;;;14.40;71.20;;;;;;5015490;28;20847;-63
2022/05/02 00:36:00;;;;;;;5.83;5.20;;;14.40;71.20;;;;;;5007241;28;20225;-64
2022/05/02 00:38:27;;;;;;;4.33;3.93;;;14.40;71.20;;;;;;5015305;28;20464;-64
2022/05/02 00:40:54;;;;;;;5.73;5.23;;;14.40;71.20;;;;;;5015896;28;20484;-64
2022/05/02 00:43:21;;;;;;;5.75;4.60;;;14.40;71.10;;;;;;5015491;28;20475;-64
2022/05/02 00:45:49;;;;;;;6.45;5.53;;;14.40;71.10;;;;;;5015898;28;20226;-64
2022/05/02 00:48:17;;;;;;;4.60;4.20;;;14.40;70.90;;;;;;5015610;28;20225;-64
2022/05/02 00:50:47;;;;;;;5.47;5.00;;;14.40;70.90;;;;;;5015076;28;20221;-63
2022/05/02 00:53:15;;;;;;;4.33;3.93;;;14.40;70.90;;;;;;5015659;28;20357;-64
2022/05/02 00:55:43;;;;;;;6.93;5.93;;;14.40;70.90;;;;;;5015017;28;20484;-64
2022/05/02 00:58:10;;;;;;;4.93;4.63;;;14.40;71.10;;;;;;5014568;28;20480;-64
2022/05/02 01:00:39;;;;;;;6.15;5.55;;;14.40;71.20;;;;;;5014799;28;20465;-64
2022/05/02 01:03:08;;;;;;;5.32;4.60;;;14.40;71.20;;;;;;5015469;28;20260;-64
2022/05/02 01:07:08;;;;;;;6.22;4.30;;;14.30;71.10;;;;;;5014989;28;20225;-64
2022/05/02 01:08:28;;;;;;;5.35;4.00;;;14.20;71.90;;;;;;5002543;28;20250;-64
2022/05/02 01:10:57;;;;;;;4.65;4.00;;;14.20;71.30;;;;;;5015206;28;20311;-64
2022/05/02 01:13:35;;;;;;;4.95;4.28;;;14.20;72.10;;;;;;5014945;28;20214;-64
2022/05/02 01:16:09;;;;;;;6.50;4.70;;;14.20;72.70;;;;;;5015317;28;20221;-64
2022/05/02 01:18:37;;;;;;;6.10;4.53;;;14.10;73.20;;;;;;5014848;28;20236;-64
2022/05/02 01:21:09;;;;;;;4.13;3.83;;;14.10;73.90;;;;;;5015227;28;20280;-63
2022/05/02 01:23:36;;;;;;;4.90;4.45;;;14.10;74.20;;;;;;5014842;28;20230;-64
2022/05/02 01:26:03;;;;;;;4.55;4.10;;;14.00;74.60;;;;;;5015053;28;20237;-64
2022/05/02 01:28:30;;;;;;;5.05;4.05;;;14.00;74.80;;;;;;5014737;28;20226;-64
2022/05/02 01:30:57;;;;;;;4.55;4.07;;;13.90;75.10;;;;;;5014760;28;20252;-64
2022/05/02 01:33:24;;;;;;;4.43;4.03;;;13.80;75.30;;;;;;5015112;28;20222;-64
2022/05/02 01:35:51;;;;;;;6.35;5.40;;;13.80;75.40;;;;;;5005015;28;20241;-64
2022/05/02 01:38:19;;;;;;;7.47;6.80;;;13.80;75.50;;;;;;5014924;28;20608;-63
2022/05/02 01:40:46;;;;;;;4.90;4.45;;;13.70;75.60;;;;;;5001390;28;20229;-63
2022/05/02 01:43:13;;;;;;;5.10;4.60;;;13.70;75.70;;;;;;5014652;28;20236;-64
2022/05/02 01:45:40;;;;;;;4.90;4.43;;;13.50;75.80;;;;;;5014519;28;20241;-64
2022/05/02 01:48:08;;;;;;;4.35;3.95;;;13.50;76.00;;;;;;5014579;28;20280;-64
2022/05/02 01:50:35;;;;;;;5.00;4.50;;;13.50;76.30;;;;;;5008219;28;20219;-64
2022/05/02 01:53:01;;;;;;;5.30;4.15;;;13.30;76.50;;;;;;5008021;28;20672;-64
2022/05/02 01:55:30;;;;;;;5.38;4.70;;;13.30;76.60;;;;;;5012806;28;20238;-64
2022/05/02 01:57:56;;;;;;;4.50;4.20;;;13.20;76.70;;;;;;5014043;28;20233;-64
2022/05/02 02:00:23;;;;;;;6.07;5.47;;;13.20;76.90;;;;;;5012907;28;20728;-64
2022/05/02 02:02:50;;;;;;;5.10;4.60;;;13.20;77.10;;;;;;5014102;28;20233;-63
2022/05/02 02:08:01;;;;;;;5.65;4.47;;;13.10;77.20;;;;;;5014179;28;20575;-63
2022/05/02 02:10:28;;;;;;;4.68;4.03;;;13.10;77.00;;;;;;5014206;28;20704;-64
2022/05/02 02:12:56;;;;;;;5.57;4.15;;;13.10;78.10;;;;;;5013871;28;20226;-63
2022/05/02 02:15:23;;;;;;;5.10;4.15;;;13.10;77.40;;;;;;5014227;28;20226;-64
2022/05/02 02:17:50;;;;;;;5.78;3.92;;;13.10;77.90;;;;;;5014073;28;20233;-64
2022/05/02 02:20:16;;;;;;;5.03;4.55;;;13.00;78.20;;;;;;5014019;28;20697;-64
2022/05/02 02:22:43;;;;;;;5.68;5.10;;;13.00;78.50;;;;;;5013775;28;20322;-63
2022/05/02 02:25:11;;;;;;;5.07;4.57;;;13.00;78.70;;;;;;5014137;28;20222;-63
2022/05/02 02:27:38;;;;;;;4.93;4.30;;;13.00;78.80;;;;;;5013572;28;20229;-64
2022/05/02 02:30:07;;;;;;;5.60;4.82;;;13.00;79.10;;;;;;5014009;28;20244;-63
2022/05/02 02:32:34;;;;;;;7.60;5.10;;;12.90;79.00;;;;;;5013900;28;20225;-64
2022/05/02 02:35:01;;;;;;;5.20;4.50;;;13.00;79.30;;;;;;5013329;28;20222;-64
2022/05/02 02:37:28;;;;;;;7.18;4.30;;;13.00;79.20;;;;;;5013614;28;20222;-63
2022/05/02 02:39:54;;;;;;;4.55;4.15;;;13.00;79.30;;;;;;5013264;28;20228;-64
2022/05/02 02:42:22;;;;;;;5.22;4.72;;;12.90;79.10;;;;;;5013789;28;20237;-64
2022/05/02 02:44:49;;;;;;;4.07;3.78;;;12.90;79.00;;;;;;5013472;28;20226;-63
2022/05/02 02:47:17;;;;;;;4.60;4.20;;;12.90;79.30;;;;;;5013570;28;20225;-63
2022/05/02 02:49:44;;;;;;;5.78;3.83;;;12.80;79.20;;;;;;5013233;28;20218;-64
2022/05/02 02:52:11;;;;;;;4.70;4.30;;;12.80;79.10;;;;;;5013759;28;20243;-64
2022/05/02 02:54:38;;;;;;;5.47;4.18;;;12.90;79.30;;;;;;5013587;28;20226;-64
2022/05/02 02:57:05;;;;;;;6.45;4.78;;;12.80;79.30;;;;;;5013190;28;20661;-64
2022/05/02 02:59:32;;;;;;;4.53;4.13;;;12.80;79.50;;;;;;5013522;28;20233;-63
2022/05/02 03:01:59;;;;;;;5.50;4.63;;;12.80;79.50;;;;;;5013060;28;20569;-63
2022/05/02 03:07:12;;;;;;;4.22;3.92;;;12.80;78.90;;;;;;5013393;28;20233;-63
2022/05/02 03:09:39;;;;;;;5.38;4.88;;;12.70;78.80;;;;;;5013522;28;20553;-63
2022/05/02 03:12:07;;;;;;;5.10;4.35;;;12.70;78.80;;;;;;5012877;28;20313;-64
2022/05/02 03:14:34;;;;;;;4.15;3.75;;;12.70;78.80;;;;;;5013300;28;20225;-63
2022/05/02 03:17:01;;;;;;;5.22;4.78;;;12.80;78.80;;;;;;5013108;28;20227;-64
2022/05/02 03:19:29;;;;;;;5.45;3.70;;;12.70;78.50;;;;;;5013315;28;20222;-64
2022/05/02 03:21:56;;;;;;;3.60;3.38;;;12.70;78.50;;;;;;5012423;28;20233;-64
2022/05/02 03:24:22;;;;;;;5.75;3.80;;;12.70;78.70;;;;;;5013146;28;20222;-64
2022/05/02 03:26:49;;;;;;;5.18;4.32;;;12.70;78.90;;;;;;5012876;28;20222;-64
2022/05/02 03:29:16;;;;;;;4.93;4.40;;;12.70;78.90;;;;;;5013222;28;20310;-63
2022/05/02 03:31:43;;;;;;;5.00;4.50;;;12.60;78.80;;;;;;5013178;28;20690;-64
2022/05/02 03:34:10;;;;;;;5.05;4.25;;;12.60;79.10;;;;;;5012828;28;20226;-64
2022/05/02 03:36:38;;;;;;;4.40;4.00;;;12.60;78.60;;;;;;5013018;28;20224;-63
2022/05/02 03:39:05;;;;;;;4.70;4.00;;;12.60;78.60;;;;;;5012865;28;20568;-64
2022/05/02 03:41:32;;;;;;;4.78;4.38;;;12.60;78.70;;;;;;5013014;28;20248;-64
2022/05/02 03:43:59;;;;;;;5.20;4.70;;;12.60;79.10;;;;;;5012878;28;20226;-63
2022/05/02 03:46:26;;;;;;;4.60;4.20;;;12.50;79.40;;;;;;5013172;28;20229;-63
2022/05/02 03:48:54;;;;;;;5.40;4.90;;;12.50;79.30;;;;;;5012649;28;20684;-63
2022/05/02 03:51:21;;;;;;;6.75;4.22;;;12.50;79.60;;;;;;5012928;28;20257;-64
2022/05/02 03:53:49;;;;;;;5.90;5.10;;;12.50;79.90;;;;;;5013144;28;20233;-64
2022/05/02 03:56:16;;;;;;;5.38;4.30;;;12.50;80.20;;;;;;5012535;28;20218;-64
2022/05/02 03:58:42;;;;;;;5.97;4.82;;;12.50;80.00;;;;;;5012929;28;20568;-64
2022/05/02 04:01:09;;;;;;;6.57;4.90;;;12.50;80.30;;;;;;5012552;28;20236;-64
2022/05/02 04:03:36;;;;;;;7.85;4.90;;;12.50;80.40;;;;;;5012999;28;20238;-64
2022/05/02 04:06:03;;;;;;;5.53;4.88;;;12.50;80.60;;;;;;5012454;28;20234;-62
2022/05/02 04:08:30;;;;;;;5.68;4.65;;;12.50;80.70;;;;;;5012874;28;20236;-63
2022/05/02 04:10:58;;;;;;;5.97;4.43;;;12.50;81.00;;;;;;5012303;28;20241;-63
2022/05/02 04:13:25;;;;;;;5.63;4.32;;;12.50;81.40;;;;;;5012777;28;20218;-63
2022/05/02 04:15:52;;;;;;;5.25;4.75;;;12.40;81.40;;;;;;5012627;28;20230;-63
2022/05/02 04:18:18;;;;;;;5.70;5.05;;;12.40;81.40;;;;;;5012764;28;20219;-64
2022/05/02 04:20:45;;;;;;;8.48;5.90;;;12.40;81.60;;;;;;5012824;28;20222;-63
2022/05/02 04:23:12;;;;;;;5.85;5.20;;;12.40;82.10;;;;;;5012314;28;20241;-63
2022/05/02 04:25:39;;;;;;;6.65;4.45;;;12.40;82.10;;;;;;5012830;28;20226;-63
2022/05/02 04:28:08;;;;;;;5.90;5.30;;;12.30;82.30;;;;;;5012235;28;20233;-64
2022/05/02 04:30:36;;;;;;;9.43;4.63;;;12.40;82.10;;;;;;5012692;28;20222;-64
2022/05/02 04:33:03;;;;;;;6.00;4.78;;;12.30;82.20;;;;;;5013266;28;20243;-64
2022/05/02 04:35:30;;;;;;;5.20;4.72;;;12.30;82.30;;;;;;5016050;28;20225;-64
2022/05/02 04:37:58;;;;;;;5.10;4.60;;;12.30;82.60;;;;;;5015647;28;20230;-63
2022/05/02 04:40:25;;;;;;;5.28;4.78;;;12.20;82.80;;;;;;5016270;28;20241;-63
2022/05/02 04:42:52;;;;;;;5.93;5.43;;;12.20;83.00;;;;;;5016124;28;20711;-63
2022/05/02 04:45:20;;;;;;;6.20;5.60;;;12.20;83.10;;;;;;5015574;28;20233;-63
2022/05/02 04:47:47;;;;;;;7.82;5.00;;;12.20;83.10;;;;;;5015799;28;20247;-63
2022/05/02 04:50:14;;;;;;;6.72;6.03;;;12.30;83.20;;;;;;5015497;28;20232;-63
2022/05/02 04:52:41;;;;;;;5.57;4.90;;;12.20;83.10;;;;;;5015742;28;20237;-64
2022/05/02 04:55:08;;;;;;;7.13;5.95;;;12.20;83.00;;;;;;5015055;28;20237;-64
2022/05/02 04:57:35;;;;;;;6.25;5.70;;;12.20;83.00;;;;;;5015725;28;20226;-64
2022/05/02 05:00:03;;;;;;;6.57;5.97;;;12.30;83.30;;;;;;5015194;28;20222;-64
2022/05/02 05:02:31;;;;;;;6.85;5.85;;;12.30;83.20;;;;;;5015710;28;20229;-63
2022/05/02 05:04:58;;;;;;;5.63;5.13;;;12.30;83.00;;;;;;5015615;28;20234;-64
2022/05/02 05:07:25;;;;;;;7.78;6.90;;;12.30;83.20;;;;;;5015467;28;20542;-64
2022/05/02 05:09:52;;;;;;;6.15;5.75;;;12.40;83.30;;;;;;5015467;28;20242;-63
2022/05/02 05:12:32;;;;;;;6.32;5.70;;;12.40;84.00;;;;;;5015098;28;20221;-64
2022/05/02 05:18:17;;;;;;;7.22;5.75;;;12.50;83.00;;;;;;4990723;28;20238;-64
2022/05/02 05:20:56;;;;;;;8.38;5.18;;;12.50;82.30;;;;;;5012177;28;20242;-64
2022/05/02 05:23:47;;;;;;;8.02;7.10;;;12.60;82.10;;;;;;5015052;28;20233;-64
2022/05/02 05:26:17;;;;;;;6.40;5.90;;;12.70;81.50;;;;;;5014763;28;20237;-64
2022/05/02 05:29:02;;;;;;;7.43;6.70;;;12.70;81.30;;;;;;5015151;28;20226;-64
2022/05/02 05:31:34;;;;;;;5.78;5.28;;;12.80;81.10;;;;;;5014681;28;20226;-64
2022/05/02 05:34:09;;;;;;;13.52;6.70;;;12.90;80.90;;;;;;5015025;28;20226;-64
2022/05/02 05:36:49;;;;;;;11.57;6.90;;;12.90;80.80;;;;;;5031010;28;20222;-64
2022/05/02 05:39:28;;;;;;;8.65;6.30;;;13.00;80.60;;;;;;5014642;28;20229;-64
2022/05/02 05:42:12;;;;;;;9.70;6.00;;;13.10;80.30;;;;;;5014860;28;20233;-63
2022/05/02 05:44:50;;;;;;;6.95;6.05;;;13.20;80.00;;;;;;5014214;28;20222;-64
2022/05/02 05:47:41;;;;;;;6.90;6.28;;;13.30;79.30;;;;;;5014646;28;20226;-63
2022/05/02 05:50:21;;;;;;;8.63;6.32;;;13.40;79.10;;;;;;5014566;28;20237;-63
2022/05/02 05:52:59;;;;;;;9.05;5.75;;;13.50;77.90;;;;;;5014397;28;20237;-64
2022/05/02 05:55:31;;;;;;;8.25;5.35;;;13.60;77.60;;;;;;5014095;28;20230;-64
2022/05/02 05:58:07;;;;;;;6.55;5.95;;;13.70;76.90;;;;;;5014692;28;20564;-62
2022/05/02 06:00:44;;;;;;;5.05;4.55;;;13.80;76.90;;;;;;5014008;28;20295;-64
2022/05/02 06:03:14;;;;;;;5.75;5.25;;;13.90;76.50;;;;;;5014487;28;20222;-64
2022/05/02 06:05:44;;;;;;;6.40;5.80;;;14.00;76.00;;;;;;5014256;28;20230;-63
2022/05/02 06:08:14;;;;;;;9.03;6.10;;;14.10;75.60;;;;;;5014341;28;20225;-64
2022/05/02 06:10:43;;;;;;;7.38;5.80;;;14.20;75.40;;;;;;5013880;28;20473;-64
2022/05/02 06:13:10;;;;;;;9.95;6.55;;;14.20;74.60;;;;;;5014222;28;20226;-64
2022/05/02 06:18:38;;;;;;;6.80;6.20;;;14.30;74.50;;;;;;4990341;28;20310;-64
2022/05/02 06:21:07;;;;;;;8.40;5.90;;;14.40;74.30;;;;;;5009232;28;20312;-64
2022/05/02 06:23:38;;;;;;;5.97;5.47;;;14.50;73.70;;;;;;5013765;28;20226;-64
2022/05/02 06:26:06;;;;;;;7.40;5.93;;;14.60;73.20;;;;;;5014308;28;20481;-63
2022/05/02 06:28:40;;;;;;;5.60;5.10;;;14.70;72.70;;;;;;5013555;28;20484;-64
2022/05/02 06:31:14;;;;;;;6.88;5.25;;;14.80;72.50;;;;;;5013986;28;20480;-63
2022/05/02 06:33:42;;;;;;;6.73;5.90;;;14.80;72.40;;;;;;5013522;28;20229;-63
2022/05/02 06:36:36;;;;;;;5.10;4.60;;;14.90;71.60;;;;;;5007764;28;20470;-63
2022/05/02 06:39:06;;;;;;;6.77;5.77;;;15.00;70.90;;;;;;4994535;28;20945;-62
2022/05/02 06:41:51;;;;;;;7.30;5.00;;;15.00;70.30;;;;;;4993814;28;20462;-62
2022/05/02 06:44:29;;;;;;;5.90;5.30;;;15.10;70.20;;;;;;4993889;28;20470;-63
2022/05/02 06:47:07;;;;;;;5.60;4.20;;;15.20;68.40;;;;;;4994139;28;20809;-63
2022/05/02 06:49:34;;;;;;;9.60;5.23;;;15.30;68.30;;;;;;4993904;28;20801;-62
2022/05/02 06:52:10;;;;;;;4.97;4.60;;;15.40;68.00;;;;;;5011780;28;20534;-63
2022/05/02 06:55:00;;;;;;;4.40;3.83;;;15.50;68.20;;;;;;5013602;28;20789;-63
2022/05/02 06:57:44;;;;;;;7.10;6.40;;;15.50;68.10;;;;;;5012619;28;20469;-62
2022/05/02 07:00:14;;;;;;;5.13;4.53;;;15.60;67.10;;;;;;5013487;28;20469;-62
2022/05/02 07:03:05;;;;;;;6.80;4.40;;;15.60;64.30;;;;;;5013201;28;20519;-63
2022/05/02 07:05:44;;;;;;;5.23;4.70;;;15.70;63.50;;;;;;5013160;28;20465;-63
2022/05/02 07:08:19;;;;;;;13.87;5.10;;;15.80;62.80;;;;;;5013489;28;20974;-63
2022/05/02 07:10:51;;;;;;;5.43;4.10;;;15.90;62.00;;;;;;5013214;28;20470;-63
2022/05/02 07:13:29;;;;;;;7.83;5.30;;;16.00;61.30;;;;;;5013341;28;20461;-64
2022/05/02 07:16:10;;;;;;;5.87;3.80;;;16.10;60.90;;;;;;5013774;28;20472;-63
2022/05/02 07:18:50;;;;;;;4.20;3.90;;;16.20;61.30;;;;;;5013761;28;20476;-64
2022/05/02 07:21:30;;;;;;;7.00;4.13;;;16.30;61.80;;;;;;5013085;28;20472;-64
2022/05/02 07:24:14;;;;;;;5.47;3.87;;;16.40;60.50;;;;;;5013105;28;20540;-64
2022/05/02 07:26:45;;;;;;;3.77;3.47;;;16.60;60.50;;;;;;5013281;28;20469;-63
2022/05/02 07:29:14;;;;;;;6.10;4.13;;;16.70;60.50;;;;;;5013014;28;20960;-64
2022/05/02 07:31:42;;;;;;;4.40;3.40;;;16.80;60.40;;;;;;5013077;28;20488;-64
2022/05/02 07:34:14;;;;;;;4.77;4.27;;;16.90;60.70;;;;;;5012730;28;20469;-63
2022/05/02 07:36:43;;;;;;;5.80;4.00;;;17.00;61.90;;;;;;5013003;28;20463;-62
2022/05/02 07:39:16;;;;;;;7.03;3.17;;;17.00;61.20;;;;;;5012633;28;20473;-63
2022/05/02 07:41:48;;;;;;;4.47;3.70;;;17.10;61.60;;;;;;5013086;28;20470;-63
2022/05/02 07:44:17;;;;;;;4.07;3.77;;;17.20;59.90;;;;;;5012886;28;20468;-64
2022/05/02 07:46:46;;;;;;;6.10;4.20;;;17.20;60.00;;;;;;5013210;28;20470;-63
2022/05/02 07:49:16;;;;;;;4.43;4.00;;;17.30;59.90;;;;;;5012792;28;20959;-64
2022/05/02 07:51:46;;;;;;;5.10;3.47;;;17.30;59.70;;;;;;5012774;28;20471;-64
2022/05/02 07:54:19;;;;;;;8.07;4.43;;;17.40;60.00;;;;;;5012765;28;20961;-63
2022/05/02 07:56:48;;;;;;;4.53;3.90;;;17.50;59.60;;;;;;5012640;28;20478;-63
2022/05/02 07:59:16;;;;;;;6.07;4.53;;;17.50;59.20;;;;;;5012641;28;20478;-63
2022/05/02 08:01:47;;;;;;;5.23;4.70;;;17.60;59.40;;;;;;5012730;28;20473;-63
2022/05/02 08:04:15;;;;;;;6.10;4.37;;;17.70;59.80;;;;;;5012664;28;20591;-64
2022/05/02 08:07:09;;;;;;;4.93;4.43;;;17.80;60.00;;;;;;5013269;28;20992;-64
2022/05/02 08:10:04;;;;;;;4.10;3.70;;;17.90;60.50;;;;;;5016830;28;20815;-64
2022/05/02 08:12:37;;;;;;;5.63;4.10;;;17.90;60.00;;;;;;5016446;28;20472;-63
2022/05/02 08:15:12;;;;;;;4.60;3.93;;;18.00;60.20;;;;;;5016199;28;20543;-63
2022/05/02 08:17:59;;;;;;;6.57;3.50;;;18.10;60.60;;;;;;5016570;28;20476;-63
2022/05/02 08:20:35;;;;;;;4.83;3.60;;;18.10;60.80;;;;;;5007665;28;20495;-63
2022/05/02 08:29:01;;;;;;;3.00;2.80;;;18.20;60.50;;;;;;5016262;28;20550;-63
2022/05/02 08:31:41;;;;;;;3.90;3.40;;;18.30;60.70;;;;;;5016215;28;20482;-62
2022/05/02 08:34:16;;;;;;;4.90;3.27;;;18.30;60.20;;;;;;5015753;28;20529;-63
2022/05/02 08:36:52;;;;;;;3.67;3.37;;;18.30;60.20;;;;;;5015985;28;20794;-63
2022/05/02 08:39:26;;;;;;;5.47;3.67;;;18.30;60.30;;;;;;5016503;28;20480;-63
2022/05/02 08:42:27;;;;;;;5.80;4.43;;;18.30;60.60;;;;;;5015760;28;20460;-63
2022/05/02 08:45:38;;;;;;;4.40;4.00;;;18.30;60.80;;;;;;5015634;28;20471;-63
2022/05/02 08:48:39;;;;;;;3.73;3.43;;;18.40;60.60;;;;;;5016344;28;20463;-63
2022/05/02 08:51:46;;;;;;;4.50;4.00;;;18.50;60.50;;;;;;5012895;28;20470;-63
2022/05/02 08:54:37;;;;;;;4.33;3.93;;;18.50;60.70;;;;;;5015296;28;20472;-64
2022/05/02 08:57:31;;;;;;;4.87;3.60;;;18.50;60.10;;;;;;5015192;28;20807;-64
2022/05/02 09:00:09;;;;;;;6.63;4.27;;;18.50;59.70;;;;;;5015196;28;20967;-63
2022/05/02 09:03:25;;;;;;;4.23;3.93;;;18.50;59.60;;;;;;5015543;28;20478;-64
2022/05/02 09:06:19;;;;;;;3.37;3.07;;;18.60;60.00;;;;;;5015433;28;20460;-64
2022/05/02 09:09:07;;;;;;;4.27;3.87;;;18.60;60.30;;;;;;4985618;28;20488;-64
2022/05/02 09:11:48;;;;;;;6.60;3.80;;;18.60;59.80;;;;;;5015145;28;20587;-64
2022/05/02 09:14:51;;;;;;;3.53;3.20;;;18.60;59.60;;;;;;5015350;28;20479;-64
2022/05/02 09:17:58;;;;;;;4.10;3.70;;;18.70;59.50;;;;;;5015093;28;21006;-63
2022/05/02 09:20:54;;;;;;;5.90;3.90;;;18.70;59.10;;;;;;5014380;28;20463;-63
2022/05/02 09:24:18;;;;;;;5.17;4.10;;;18.70;59.00;;;;;;5014801;28;20467;-63
2022/05/02 09:27:13;;;;;;;8.53;4.60;;;18.70;59.10;;;;;;5014955;28;20469;-64
2022/05/02 09:30:17;;;;;;;4.30;4.00;;;18.70;59.10;;;;;;5014754;28;20464;-63
2022/05/02 09:33:00;;;;;;;4.47;4.07;;;18.70;58.70;;;;;;5014488;28;20471;-63
2022/05/02 09:35:40;;;;;;;6.67;4.60;;;18.70;59.00;;;;;;5014412;28;20465;-64
2022/05/02 09:38:25;;;;;;;9.23;4.07;;;18.70;59.00;;;;;;5014817;28;20554;-63
2022/05/02 09:41:02;;;;;;;6.83;3.80;;;18.80;58.80;;;;;;5014525;28;20519;-63
2022/05/02 09:50:14;;;;;;;5.37;4.67;;;19.00;58.70;;;;;;5014537;28;21026;-65
2022/05/02 09:53:02;;;;;;;3.67;3.20;;;19.00;58.50;;;;;;4994441;28;21164;-63
2022/05/02 09:58:37;;;;;;;4.57;3.67;;;19.10;58.40;;;;;;4995051;28;20608;-62
2022/05/02 10:01:17;;;;;;;3.60;3.30;;;19.20;58.60;;;;;;4995068;28;20469;-63
2022/05/02 10:04:22;;;;;;;4.17;3.77;;;19.30;58.30;;;;;;4994447;28;20845;-64
2022/05/02 10:06:55;;;;;;;3.53;3.23;;;19.30;58.10;;;;;;4992889;28;20520;-64
2022/05/02 10:09:41;;;;;;;6.70;4.00;;;19.20;58.10;;;;;;4994864;28;20533;-64
2022/05/02 10:12:20;;;;;;;4.50;3.30;;;19.20;58.00;;;;;;4994271;28;21024;-64
2022/05/02 10:15:03;;;;;;;3.77;3.37;;;19.20;58.10;;;;;;5009067;28;20469;-63
2022/05/02 10:18:01;;;;;;;4.77;3.67;;;19.10;58.10;;;;;;5013604;28;20947;-64
2022/05/02 10:20:40;;;;;;;12.77;6.83;;;19.00;58.20;;;;;;5013675;28;20784;-63
2022/05/02 10:23:21;;;;;;;5.40;5.00;;;18.90;58.80;;;;;;5013566;28;20491;-64
2022/05/02 10:25:56;;;;;;;7.60;4.80;;;19.00;59.00;;;;;;5013990;28;20526;-64
2022/05/02 10:28:38;;;;;;;4.43;4.00;;;19.10;58.60;;;;;;5013668;28;20468;-64
2022/05/02 10:31:09;;;;;;;4.83;3.40;;;19.20;58.40;;;;;;5013703;28;20480;-64
2022/05/02 10:33:44;;;;;;;3.73;3.43;;;19.20;58.40;;;;;;5013815;28;20547;-63
2022/05/02 10:36:12;;;;;;;5.53;3.40;;;19.20;58.40;;;;;;5014040;28;20501;-64
2022/05/02 10:38:47;;;;;;;4.00;3.60;;;19.20;58.10;;;;;;5013615;28;20461;-63
2022/05/02 10:41:22;;;;;;;3.80;3.50;;;19.30;58.30;;;;;;5013985;28;20486;-63
2022/05/02 10:43:51;;;;;;;4.53;4.13;;;19.30;58.00;;;;;;5013328;28;20998;-64
2022/05/02 10:46:19;;;;;;;4.47;4.10;;;19.40;58.10;;;;;;5013955;28;20815;-64
2022/05/02 10:48:52;;;;;;;3.40;3.10;;;19.50;58.00;;;;;;5013214;28;20468;-63
2022/05/02 10:51:27;;;;;;;4.80;4.30;;;19.50;57.90;;;;;;5013553;28;20868;-63
2022/05/02 10:54:29;;;;;;;6.53;4.63;;;19.60;58.20;;;;;;5013291;28;20456;-63
2022/05/02 10:57:00;;;;;;;4.00;3.50;;;19.70;57.80;;;;;;5002791;28;21040;-63
2022/05/02 10:59:34;;;;;;;4.30;3.90;;;19.70;57.60;;;;;;5013585;28;20492;-63
2022/05/02 11:02:28;;;;;;;4.40;4.00;;;19.70;57.50;;;;;;5016601;28;20470;-62
2022/05/02 11:05:08;;;;;;;7.40;5.17;;;19.70;57.30;;;;;;5032869;28;20533;-64
2022/05/02 11:07:49;;;;;;;8.87;5.70;;;19.70;57.40;;;;;;5033194;28;20460;-63
2022/05/02 11:10:20;;;;;;;4.70;4.27;;;19.60;57.00;;;;;;5025879;28;20453;-64
2022/05/02 11:12:52;;;;;;;5.73;5.23;;;19.70;57.00;;;;;;5013180;28;20462;-64
2022/05/02 11:15:22;;;;;;;6.80;4.20;;;19.70;56.90;;;;;;5013236;28;20487;-64
2022/05/02 11:17:58;;;;;;;5.37;4.30;;;19.80;57.00;;;;;;5013093;28;20465;-64
2022/05/02 11:20:43;;;;;;;5.90;5.30;;;19.80;57.30;;;;;;5013017;28;20539;-64
2022/05/02 11:23:41;;;;;;;5.23;4.70;;;19.90;57.30;;;;;;5013344;28;20878;-64
2022/05/02 11:26:21;;;;;;;9.03;4.30;;;20.00;56.90;;;;;;5013361;28;20473;-64
2022/05/02 11:29:11;;;;;;;5.53;4.83;;;20.00;56.80;;;;;;5013165;28;20473;-63
2022/05/02 11:31:44;;;;;;;5.53;4.23;;;20.00;56.80;;;;;;4999474;28;20998;-63
2022/05/02 11:34:23;;;;;;;4.07;3.77;;;20.10;56.80;;;;;;5005803;28;20470;-64
2022/05/02 11:36:55;;;;;;;5.00;4.50;;;20.10;56.90;;;;;;5001757;28;20475;-63
2022/05/02 11:39:30;;;;;;;5.07;4.57;;;20.10;56.70;;;;;;5001537;28;20553;-63
2022/05/02 11:42:03;;;;;;;3.40;3.20;;;20.20;56.70;;;;;;5010514;28;20475;-64
2022/05/02 11:44:37;;;;;;;5.30;4.90;;;20.20;57.00;;;;;;5009094;28;20456;-64
2022/05/02 11:47:13;;;;;;;6.00;4.77;;;20.20;57.20;;;;;;5007287;28;20482;-64
2022/05/02 11:49:53;;;;;;;4.90;4.40;;;20.30;57.50;;;;;;5000853;28;20549;-64
2022/05/02 11:52:31;;;;;;;5.43;4.97;;;20.40;57.30;;;;;;4997214;28;20563;-64
2022/05/02 11:55:00;;;;;;;5.40;4.90;;;20.50;57.00;;;;;;5006183;28;20542;-64
2022/05/02 11:57:35;;;;;;;5.40;4.90;;;20.60;56.90;;;;;;5009974;28;20460;-64
2022/05/02 12:00:07;;;;;;;4.70;4.30;;;20.70;57.00;;;;;;5000697;28;20784;-64
2022/05/02 12:02:51;;;;;;;8.37;4.10;;;20.80;56.10;;;;;;5000444;28;20472;-64
2022/05/02 12:05:27;;;;;;;5.33;4.50;;;20.80;55.60;;;;;;5002686;28;20814;-64
2022/05/02 12:07:55;;;;;;;6.07;4.87;;;20.80;55.60;;;;;;4998910;28;20525;-64
2022/05/02 12:10:32;;;;;;;6.10;5.50;;;20.90;55.90;;;;;;4997340;28;20463;-63
2022/05/02 12:13:01;;;;;;;6.10;5.47;;;20.90;55.80;;;;;;4996878;28;20537;-64
2022/05/02 12:15:28;;;;;;;5.67;5.17;;;20.90;56.00;;;;;;4999121;28;20553;-63
2022/05/02 12:17:59;;;;;;;4.77;4.37;;;20.90;55.70;;;;;;5001449;28;20482;-63
2022/05/02 12:20:29;;;;;;;4.97;4.47;;;20.90;55.70;;;;;;5013390;28;20545;-63
2022/05/02 12:23:00;;;;;;;5.43;4.70;;;20.80;55.60;;;;;;5016438;28;20463;-63
2022/05/02 12:25:29;;;;;;;5.80;5.20;;;20.80;55.40;;;;;;5002998;28;20567;-63
2022/05/02 12:27:58;;;;;;;5.50;4.80;;;20.80;55.70;;;;;;5011206;28;20799;-64
2022/05/02 12:30:28;;;;;;;6.93;4.27;;;20.80;56.10;;;;;;5008339;28;20991;-63
2022/05/02 12:33:00;;;;;;;4.40;4.10;;;20.90;56.40;;;;;;4998531;28;20479;-63
2022/05/02 12:35:35;;;;;;;4.53;4.13;;;20.90;56.20;;;;;;4999481;28;20791;-64
2022/05/02 12:38:12;;;;;;;5.87;4.50;;;20.90;55.80;;;;;;5006504;28;20487;-64
2022/05/02 12:40:41;;;;;;;4.60;4.30;;;21.00;56.00;;;;;;5005486;28;21018;-64
2022/05/02 12:43:11;;;;;;;7.23;5.00;;;21.00;56.40;;;;;;5001376;28;20875;-64
2022/05/02 12:45:46;;;;;;;5.40;4.07;;;21.00;55.70;;;;;;5006059;28;20871;-64
2022/05/02 12:48:22;;;;;;;4.03;3.73;;;21.00;55.60;;;;;;5008542;28;20476;-63
2022/05/02 12:50:51;;;;;;;4.43;3.40;;;21.10;55.70;;;;;;5007864;28;20964;-63
2022/05/02 12:56:08;;;;;;;3.43;3.20;;;21.00;55.70;;;;;;5010776;28;20829;-63
2022/05/02 13:01:23;;;;;;;5.43;3.97;;;20.90;55.70;;;;;;5008782;28;20458;-63
2022/05/02 13:03:58;;;;;;;4.30;3.90;;;20.80;55.90;;;;;;5011632;28;20469;-64
2022/05/02 13:06:25;;;;;;;3.53;3.23;;;20.80;55.90;;;;;;4995569;28;20793;-64
2022/05/02 13:09:07;;;;;;;4.80;3.70;;;20.70;56.00;;;;;;4998758;28;20480;-64
2022/05/02 13:11:38;;;;;;;4.53;3.40;;;20.60;56.00;;;;;;5003295;28;20464;-64
2022/05/02 13:14:06;;;;;;;7.83;4.53;;;20.60;56.20;;;;;;5009608;28;20480;-64
2022/05/02 13:16:43;;;;;;;4.60;4.13;;;20.50;56.10;;;;;;5000415;28;20459;-63
2022/05/02 13:19:11;;;;;;;5.20;4.70;;;20.50;56.20;;;;;;5004697;28;20504;-63
2022/05/02 13:21:39;;;;;;;4.23;3.83;;;20.50;56.20;;;;;;5001195;28;20488;-64
2022/05/02 13:24:08;;;;;;;7.67;5.20;;;20.50;56.30;;;;;;5005182;28;20473;-64
2022/05/02 13:26:47;;;;;;;9.53;5.33;;;20.50;56.40;;;;;;4994923;28;20458;-64
2022/05/02 13:29:28;;;;;;;4.87;4.47;;;20.50;56.10;;;;;;5007083;28;20466;-64
2022/05/02 13:32:01;;;;;;;4.70;4.30;;;20.50;56.20;;;;;;4996202;28;20559;-64
2022/05/02 13:34:37;;;;;;;4.67;4.27;;;20.40;56.40;;;;;;5000947;28;20525;-64
2022/05/02 13:37:17;;;;;;;4.90;4.10;;;20.40;56.50;;;;;;5005890;28;20485;-64
2022/05/02 13:39:52;;;;;;;4.30;3.90;;;20.50;56.10;;;;;;5011514;28;20460;-64
2022/05/02 13:42:38;;;;;;;4.17;3.77;;;20.40;56.10;;;;;;5027183;28;20535;-64
2022/05/02 13:45:11;;;;;;;3.70;3.40;;;20.40;56.20;;;;;;5022195;28;20553;-64
2022/05/02 13:47:51;;;;;;;4.70;4.30;;;20.40;56.50;;;;;;5033546;28;20546;-64
2022/05/02 13:50:21;;;;;;;3.77;3.00;;;20.40;56.50;;;;;;5019939;28;20477;-64
2022/05/02 13:52:52;;;;;;;3.43;3.13;;;20.40;56.70;;;;;;5023113;28;20453;-64